Time;durP1;ratioP1;P1;durP2;ratioP2;P2;SDS_P1;SDS_P2;PMS_P1;PMS_P2;Temp;Humidity;BMP_temperature;BMP_pressure;BME280_temperature;BME280_humidity;BME280_pressure;Samples;Min_cycle;Max_cycle;Signal;HPM_P1;HPM_P2
2021/12/03 00:01:23;;;;;;;9.95;3.95;;;0.50;99.90;;;;;;5032341;28;20131;-44
2021/12/03 00:03:51;;;;;;;10.18;3.88;;;0.40;99.90;;;;;;5014105;28;20045;-43
2021/12/03 00:06:18;;;;;;;13.50;5.03;;;0.50;99.90;;;;;;5031500;28;20485;-44
2021/12/03 00:08:45;;;;;;;14.05;4.60;;;0.50;99.90;;;;;;5014473;28;20103;-43
2021/12/03 00:11:13;;;;;;;12.38;4.70;;;0.50;99.90;;;;;;5014514;28;20462;-43
2021/12/03 00:13:41;;;;;;;14.27;5.43;;;0.40;99.90;;;;;;5014649;28;20056;-44
2021/12/03 00:16:08;;;;;;;17.42;6.95;;;0.50;99.90;;;;;;5031129;28;20045;-43
2021/12/03 00:18:35;;;;;;;18.63;8.55;;;0.50;99.90;;;;;;5034294;28;20454;-43
2021/12/03 00:21:06;;;;;;;21.50;9.55;;;0.50;99.90;;;;;;5012538;28;20077;-43
2021/12/03 00:23:33;;;;;;;22.27;8.70;;;0.50;99.90;;;;;;5027373;28;20457;-44
2021/12/03 00:26:00;;;;;;;14.95;8.93;;;0.50;99.90;;;;;;5014248;28;20323;-43
2021/12/03 00:28:27;;;;;;;17.77;8.48;;;0.50;99.90;;;;;;5014005;28;20611;-43
2021/12/03 00:30:54;;;;;;;19.67;8.07;;;0.60;99.90;;;;;;5031695;28;20080;-43
2021/12/03 00:33:21;;;;;;;21.73;9.13;;;0.60;99.90;;;;;;5038094;28;20037;-44
2021/12/03 00:35:48;;;;;;;16.23;6.85;;;0.60;99.90;;;;;;5029390;28;20107;-44
2021/12/03 00:38:17;;;;;;;18.85;8.25;;;0.60;99.90;;;;;;5032628;28;20489;-42
2021/12/03 00:40:44;;;;;;;18.65;7.93;;;0.60;99.90;;;;;;5027179;28;20053;-47
2021/12/03 00:43:11;;;;;;;18.55;7.45;;;0.60;99.90;;;;;;5013381;28;20049;-43
2021/12/03 00:45:38;;;;;;;19.25;7.88;;;0.70;99.90;;;;;;5013686;28;20049;-43
2021/12/03 00:48:05;;;;;;;15.93;5.82;;;0.70;99.90;;;;;;5031581;28;20057;-43
2021/12/03 00:50:32;;;;;;;15.52;6.88;;;0.70;99.90;;;;;;5014559;28;20089;-42
2021/12/03 00:53:00;;;;;;;14.98;6.20;;;0.70;99.90;;;;;;5013920;28;20135;-43
2021/12/03 00:55:29;;;;;;;18.15;6.25;;;0.70;99.90;;;;;;5013890;28;20054;-44
2021/12/03 00:57:56;;;;;;;15.35;6.55;;;0.70;99.90;;;;;;5028423;28;20140;-43
2021/12/03 01:00:25;;;;;;;16.23;6.00;;;0.70;99.90;;;;;;5031392;28;20449;-42
2021/12/03 01:02:52;;;;;;;11.07;5.68;;;0.70;99.90;;;;;;5031872;28;20092;-43
2021/12/03 01:05:19;;;;;;;14.98;6.43;;;0.70;99.90;;;;;;5030564;28;20045;-43
2021/12/03 01:07:46;;;;;;;16.67;8.00;;;0.70;99.90;;;;;;5031247;28;20520;-43
2021/12/03 01:10:13;;;;;;;18.27;8.23;;;0.70;99.90;;;;;;5031133;28;20056;-43
2021/12/03 01:12:41;;;;;;;15.50;8.07;;;0.70;99.90;;;;;;5031532;28;20050;-43
2021/12/03 01:15:11;;;;;;;16.40;8.27;;;0.70;99.90;;;;;;5032024;28;20088;-44
2021/12/03 01:17:38;;;;;;;19.73;9.25;;;0.70;99.90;;;;;;5035283;28;20053;-43
2021/12/03 01:20:06;;;;;;;21.25;10.55;;;0.70;99.90;;;;;;5035150;28;20474;-43
2021/12/03 01:22:34;;;;;;;22.17;11.23;;;0.70;99.90;;;;;;5034740;28;20056;-44
2021/12/03 01:25:01;;;;;;;26.05;11.60;;;0.70;99.90;;;;;;5034892;28;20045;-47
2021/12/03 01:27:28;;;;;;;24.98;11.88;;;0.80;99.90;;;;;;5017256;28;20382;-42
2021/12/03 01:29:56;;;;;;;28.48;11.07;;;0.80;99.90;;;;;;5035373;28;20076;-42
2021/12/03 01:32:23;;;;;;;19.48;11.30;;;0.80;99.90;;;;;;5035088;28;20121;-43
2021/12/03 01:34:50;;;;;;;21.50;11.63;;;0.80;99.90;;;;;;5009510;28;20103;-43
2021/12/03 01:37:17;;;;;;;24.42;12.10;;;0.80;99.90;;;;;;5017546;28;20473;-44
2021/12/03 01:39:44;;;;;;;20.38;11.57;;;0.80;99.90;;;;;;5018755;28;20060;-43
2021/12/03 01:42:11;;;;;;;28.92;12.20;;;0.80;99.90;;;;;;5034572;28;20056;-43
2021/12/03 01:44:38;;;;;;;29.40;13.80;;;0.80;99.90;;;;;;5016354;28;20128;-43
2021/12/03 01:47:07;;;;;;;25.23;13.32;;;0.80;99.90;;;;;;5016465;28;20053;-43
2021/12/03 01:49:34;;;;;;;22.67;12.60;;;0.80;99.90;;;;;;5033968;28;20497;-43
2021/12/03 01:52:01;;;;;;;24.77;12.95;;;0.80;99.90;;;;;;5028365;28;20059;-43
2021/12/03 01:54:28;;;;;;;27.05;14.73;;;0.80;99.90;;;;;;5033870;28;20548;-42
2021/12/03 01:56:55;;;;;;;27.92;15.95;;;0.90;99.90;;;;;;5032718;28;20056;-44
2021/12/03 01:59:22;;;;;;;28.27;17.20;;;0.90;99.90;;;;;;5034481;28;20396;-43
2021/12/03 02:01:49;;;;;;;32.13;16.50;;;0.90;99.90;;;;;;5016528;28;20081;-43
2021/12/03 02:04:17;;;;;;;31.58;16.25;;;0.90;99.90;;;;;;5034176;28;20420;-44
2021/12/03 02:06:44;;;;;;;30.17;19.20;;;0.90;99.90;;;;;;5027809;28;20053;-46
2021/12/03 02:09:11;;;;;;;24.38;16.60;;;0.90;99.90;;;;;;5014969;28;20049;-45
2021/12/03 02:11:38;;;;;;;29.02;18.55;;;0.90;99.90;;;;;;5033937;28;20578;-45
2021/12/03 02:14:06;;;;;;;31.00;18.95;;;0.90;99.90;;;;;;5016890;28;20045;-44
2021/12/03 02:16:33;;;;;;;31.77;18.65;;;0.90;99.90;;;;;;5016647;28;20426;-44
2021/12/03 02:19:00;;;;;;;31.23;18.95;;;0.80;99.90;;;;;;5015582;28;20046;-43
2021/12/03 02:21:28;;;;;;;30.80;18.42;;;0.80;99.90;;;;;;5016750;28;20440;-43
2021/12/03 02:23:56;;;;;;;25.15;17.67;;;0.90;99.90;;;;;;5033828;28;20057;-43
2021/12/03 02:26:23;;;;;;;33.50;18.08;;;0.90;99.90;;;;;;5015332;28;20490;-43
2021/12/03 02:28:50;;;;;;;31.30;18.98;;;0.90;99.90;;;;;;5033467;28;20049;-43
2021/12/03 02:31:22;;;;;;;36.78;19.83;;;0.90;99.90;;;;;;5033512;28;20053;-43
2021/12/03 02:33:49;;;;;;;34.72;18.13;;;0.90;99.90;;;;;;5033751;28;20073;-43
2021/12/03 02:36:16;;;;;;;30.85;18.00;;;0.90;99.90;;;;;;5014640;28;20107;-43
2021/12/03 02:38:45;;;;;;;28.60;18.00;;;0.90;99.90;;;;;;5033599;28;20138;-42
2021/12/03 02:41:12;;;;;;;33.17;18.25;;;0.90;99.90;;;;;;5044180;28;20511;-43
2021/12/03 02:43:39;;;;;;;28.33;19.40;;;1.00;99.90;;;;;;5014003;28;20369;-43
2021/12/03 02:46:06;;;;;;;25.42;17.80;;;1.00;99.90;;;;;;4995649;28;20145;-43
2021/12/03 02:48:35;;;;;;;26.15;16.98;;;0.90;99.90;;;;;;4996844;28;20520;-45
2021/12/03 02:51:02;;;;;;;26.17;17.15;;;1.00;99.90;;;;;;5000554;28;20572;-43
2021/12/03 02:53:29;;;;;;;32.42;17.90;;;1.00;99.90;;;;;;4996514;28;20104;-44
2021/12/03 02:55:58;;;;;;;27.13;17.95;;;1.00;99.90;;;;;;5002227;28;20497;-43
2021/12/03 02:58:25;;;;;;;27.25;17.23;;;1.00;99.90;;;;;;5013210;28;20125;-42
2021/12/03 03:00:52;;;;;;;23.95;16.80;;;1.00;99.90;;;;;;4998173;28;20868;-45
2021/12/03 03:03:19;;;;;;;29.42;17.23;;;1.00;99.90;;;;;;5012403;28;20049;-45
2021/12/03 03:05:47;;;;;;;25.55;17.45;;;1.00;99.90;;;;;;5013086;28;20486;-43
2021/12/03 03:08:14;;;;;;;26.23;17.65;;;1.00;99.90;;;;;;5012859;28;20084;-43
2021/12/03 03:10:42;;;;;;;26.73;16.90;;;1.00;99.90;;;;;;5012576;28;20062;-43
2021/12/03 03:13:12;;;;;;;25.85;17.13;;;1.00;99.90;;;;;;5012844;28;20520;-43
2021/12/03 03:15:39;;;;;;;25.10;16.75;;;1.00;99.90;;;;;;4995359;28;20077;-43
2021/12/03 03:18:10;;;;;;;26.83;17.15;;;1.10;99.90;;;;;;5012970;28;20512;-43
2021/12/03 03:20:38;;;;;;;;;;;1.00;99.90;;;;;;4995968;28;20108;-43
2021/12/03 03:23:05;;;;;;;23.40;16.48;;;1.00;99.90;;;;;;4994869;28;19968;-43
2021/12/03 03:25:32;;;;;;;27.75;15.70;;;1.00;99.90;;;;;;4995578;28;20050;-44
2021/12/03 03:27:59;;;;;;;24.80;16.58;;;1.00;99.90;;;;;;4995401;28;20058;-42
2021/12/03 03:30:27;;;;;;;27.95;16.45;;;1.00;99.90;;;;;;4995368;28;20452;-43
2021/12/03 03:32:54;;;;;;;30.25;18.48;;;1.00;99.90;;;;;;4995060;28;20133;-43
2021/12/03 03:35:21;;;;;;;24.70;16.83;;;1.00;99.90;;;;;;4995280;28;20485;-43
2021/12/03 03:37:48;;;;;;;26.70;17.27;;;1.00;99.90;;;;;;4995189;28;20133;-44
2021/12/03 03:40:15;;;;;;;25.65;17.25;;;1.00;99.90;;;;;;4995598;28;20093;-43
2021/12/03 03:42:42;;;;;;;24.80;17.02;;;1.00;99.90;;;;;;4995010;28;20073;-43
2021/12/03 03:45:13;;;;;;;28.08;17.67;;;1.10;99.90;;;;;;5008836;28;20088;-43
2021/12/03 03:47:41;;;;;;;26.55;17.40;;;1.10;99.90;;;;;;5010757;28;20133;-43
2021/12/03 03:50:09;;;;;;;29.52;17.52;;;1.10;99.90;;;;;;5011755;28;20511;-44
2021/12/03 03:52:37;;;;;;;27.52;17.27;;;1.10;99.90;;;;;;5011706;28;20050;-43
2021/12/03 03:55:05;;;;;;;30.40;16.85;;;1.10;99.90;;;;;;5010499;28;20132;-43
2021/12/03 03:57:32;;;;;;;30.20;18.10;;;1.10;99.90;;;;;;5011831;28;20108;-43
2021/12/03 03:59:59;;;;;;;27.23;17.30;;;1.10;99.90;;;;;;5010572;28;20506;-43
2021/12/03 04:02:26;;;;;;;32.70;18.30;;;1.10;99.90;;;;;;5010582;28;20136;-43
2021/12/03 04:04:54;;;;;;;23.10;16.15;;;1.10;99.90;;;;;;5010602;28;20050;-43
2021/12/03 04:07:21;;;;;;;30.63;18.00;;;1.10;99.90;;;;;;5011531;28;20042;-43
2021/12/03 04:09:48;;;;;;;28.50;17.60;;;1.10;99.90;;;;;;5010598;28;20536;-45
2021/12/03 04:12:15;;;;;;;26.00;17.17;;;1.10;99.90;;;;;;5011904;28;20054;-42
2021/12/03 04:14:42;;;;;;;26.77;17.08;;;1.10;99.90;;;;;;5015221;28;20096;-44
2021/12/03 04:17:09;;;;;;;26.60;17.38;;;1.10;99.90;;;;;;5012286;28;20046;-43
2021/12/03 04:19:36;;;;;;;25.67;15.75;;;1.10;99.90;;;;;;5009667;28;20048;-45
2021/12/03 04:22:05;;;;;;;21.50;15.98;;;1.10;99.90;;;;;;5011660;28;20454;-43
2021/12/03 04:24:32;;;;;;;26.70;15.50;;;1.10;99.90;;;;;;5009483;28;20050;-43
2021/12/03 04:26:59;;;;;;;27.48;15.52;;;1.10;99.90;;;;;;5010046;28;20089;-42
2021/12/03 04:29:26;;;;;;;25.33;15.65;;;1.10;99.90;;;;;;5010245;28;20077;-42
2021/12/03 04:31:53;;;;;;;24.25;14.68;;;1.00;99.90;;;;;;5009562;28;20097;-43
2021/12/03 04:34:20;;;;;;;22.60;15.13;;;1.10;99.90;;;;;;5007502;28;20081;-43
2021/12/03 04:36:47;;;;;;;22.23;15.40;;;1.10;99.90;;;;;;5002933;28;20058;-44
2021/12/03 04:39:16;;;;;;;24.48;15.55;;;1.10;99.90;;;;;;5006895;28;20069;-44
2021/12/03 04:41:43;;;;;;;24.10;15.75;;;1.10;99.90;;;;;;5008778;28;20413;-45
2021/12/03 04:44:10;;;;;;;24.63;15.60;;;1.10;99.90;;;;;;4988145;28;1113540;-43
2021/12/03 04:46:37;;;;;;;25.65;15.00;;;1.10;99.90;;;;;;5013628;28;20104;-43
2021/12/03 04:49:04;;;;;;;24.95;15.20;;;1.10;99.90;;;;;;5031660;28;20049;-43
2021/12/03 04:51:31;;;;;;;24.33;16.45;;;1.20;99.90;;;;;;5035216;28;20084;-43
2021/12/03 04:53:58;;;;;;;22.13;15.32;;;1.10;99.90;;;;;;5033285;28;20053;-44
2021/12/03 04:56:26;;;;;;;22.58;16.00;;;1.10;99.90;;;;;;5035453;28;20099;-43
2021/12/03 04:58:53;;;;;;;32.05;14.98;;;1.20;99.90;;;;;;5035225;28;20129;-43
2021/12/03 05:01:20;;;;;;;29.55;16.80;;;1.10;99.90;;;;;;5028104;28;20121;-43
2021/12/03 05:03:47;;;;;;;21.88;16.05;;;1.10;99.90;;;;;;5034769;28;20057;-44
2021/12/03 05:06:17;;;;;;;24.20;15.77;;;1.10;99.90;;;;;;5034140;28;20096;-43
2021/12/03 05:08:44;;;;;;;25.75;15.50;;;1.10;99.90;;;;;;5017256;28;20555;-43
2021/12/03 05:11:11;;;;;;;24.55;15.20;;;1.10;99.90;;;;;;5032956;28;20079;-43
2021/12/03 05:13:39;;;;;;;29.58;16.08;;;1.10;99.90;;;;;;5016784;28;20138;-43
2021/12/03 05:16:06;;;;;;;22.38;14.73;;;1.10;99.90;;;;;;5016670;28;20052;-43
2021/12/03 05:18:33;;;;;;;27.15;15.60;;;1.10;99.90;;;;;;5044283;28;20119;-45
2021/12/03 05:21:01;;;;;;;25.17;15.95;;;1.10;99.90;;;;;;5016859;28;20497;-43
2021/12/03 05:23:29;;;;;;;28.90;16.23;;;1.10;99.90;;;;;;5034054;28;20045;-42
2021/12/03 05:25:56;;;;;;;25.35;15.88;;;1.10;99.90;;;;;;5034528;28;20057;-43
2021/12/03 05:28:23;;;;;;;27.45;16.08;;;1.10;99.90;;;;;;5019156;28;20077;-43
2021/12/03 05:30:52;;;;;;;25.98;15.90;;;1.10;99.90;;;;;;5017670;28;20049;-45
2021/12/03 05:33:19;;;;;;;21.98;15.82;;;1.10;99.90;;;;;;5031776;28;20132;-45
2021/12/03 05:35:46;;;;;;;27.33;15.68;;;1.20;99.90;;;;;;5015146;28;20065;-44
2021/12/03 05:38:13;;;;;;;25.00;15.40;;;1.20;99.90;;;;;;5034747;28;20045;-43
2021/12/03 05:40:40;;;;;;;21.95;14.52;;;1.20;99.90;;;;;;5033883;28;20084;-46
2021/12/03 05:43:07;;;;;;;28.58;16.02;;;1.20;99.90;;;;;;5025643;28;20054;-47
2021/12/03 05:45:35;;;;;;;26.40;16.02;;;1.20;99.90;;;;;;5012345;28;20054;-44
2021/12/03 05:48:04;;;;;;;23.75;14.98;;;1.20;99.90;;;;;;4987855;28;20512;-43
2021/12/03 05:50:31;;;;;;;24.25;14.80;;;1.30;99.90;;;;;;5013733;28;20470;-43
2021/12/03 05:52:58;;;;;;;21.70;13.88;;;1.20;99.90;;;;;;4995661;28;20112;-43
2021/12/03 05:55:25;;;;;;;25.83;15.10;;;1.30;99.90;;;;;;4997108;28;20437;-44
2021/12/03 05:57:52;;;;;;;25.17;15.05;;;1.20;99.90;;;;;;4995891;28;20134;-43
2021/12/03 06:00:20;;;;;;;24.88;14.75;;;1.20;99.90;;;;;;4994560;28;20161;-45
2021/12/03 06:02:47;;;;;;;26.23;14.75;;;1.20;99.90;;;;;;4993752;28;20054;-43
2021/12/03 06:05:16;;;;;;;22.30;13.48;;;1.30;99.90;;;;;;5008145;28;20056;-42
2021/12/03 06:07:43;;;;;;;23.92;12.98;;;1.30;99.90;;;;;;5013316;28;20092;-43
2021/12/03 06:10:10;;;;;;;25.10;16.40;;;1.30;99.90;;;;;;5013688;28;20092;-43
2021/12/03 06:12:37;;;;;;;23.05;12.30;;;1.30;99.90;;;;;;4995713;28;20144;-45
2021/12/03 06:15:04;;;;;;;21.67;12.23;;;1.30;99.90;;;;;;4994147;28;20230;-44
2021/12/03 06:17:31;;;;;;;25.92;13.05;;;1.40;99.90;;;;;;5013175;28;20054;-44
2021/12/03 06:19:58;;;;;;;21.60;12.98;;;1.40;99.90;;;;;;4996992;28;20596;-45
2021/12/03 06:22:27;;;;;;;19.05;12.25;;;1.40;99.90;;;;;;4995911;28;20045;-44
2021/12/03 06:24:54;;;;;;;24.58;11.65;;;1.40;99.90;;;;;;5001043;28;20121;-44
2021/12/03 06:27:21;;;;;;;20.42;11.32;;;1.40;99.90;;;;;;5017039;28;20505;-44
2021/12/03 06:29:48;;;;;;;17.55;11.27;;;1.50;99.90;;;;;;4995430;28;20066;-47
2021/12/03 06:32:15;;;;;;;21.85;11.80;;;1.50;99.90;;;;;;4993674;28;20125;-45
2021/12/03 06:34:42;;;;;;;21.48;12.10;;;1.50;99.90;;;;;;4995945;28;20089;-46
2021/12/03 06:37:09;;;;;;;24.65;12.65;;;1.50;99.90;;;;;;4998423;28;20085;-43
2021/12/03 06:39:38;;;;;;;22.80;12.65;;;1.50;99.90;;;;;;5008820;28;20149;-44
2021/12/03 06:42:05;;;;;;;22.83;11.88;;;1.50;99.90;;;;;;5004465;28;20049;-44
2021/12/03 06:44:32;;;;;;;25.10;12.60;;;1.50;99.90;;;;;;4988183;28;20060;-43
2021/12/03 06:47:02;;;;;;;20.58;12.73;;;1.50;99.90;;;;;;5008211;28;20104;-43
2021/12/03 06:49:29;;;;;;;22.48;12.43;;;1.50;99.90;;;;;;5011794;28;20420;-43
2021/12/03 06:52:01;;;;;;;22.70;11.40;;;1.60;99.90;;;;;;5011037;28;20139;-44
2021/12/03 06:54:30;;;;;;;25.27;12.55;;;1.60;99.90;;;;;;5006058;28;20112;-51
2021/12/03 06:56:59;;;;;;;25.38;12.48;;;1.60;99.90;;;;;;4963391;28;20050;-48
2021/12/03 06:59:26;;;;;;;29.05;12.73;;;1.60;99.90;;;;;;5012735;28;20390;-45
2021/12/03 07:01:53;;;;;;;24.13;13.32;;;1.60;99.90;;;;;;5009318;28;20137;-44
2021/12/03 07:04:20;;;;;;;26.42;12.05;;;1.70;99.90;;;;;;5012558;28;20393;-44
2021/12/03 07:06:47;;;;;;;24.35;12.13;;;1.70;99.90;;;;;;5010865;28;20056;-46
2021/12/03 07:09:14;;;;;;;24.52;13.38;;;1.70;99.90;;;;;;5013406;28;20108;-43
2021/12/03 07:11:41;;;;;;;29.42;13.65;;;1.80;99.90;;;;;;5020377;28;20140;-43
2021/12/03 07:14:09;;;;;;;22.23;13.90;;;1.70;99.90;;;;;;5010711;28;20082;-45
2021/12/03 07:16:36;;;;;;;27.35;13.43;;;1.70;99.90;;;;;;5009560;28;20042;-43
2021/12/03 07:19:03;;;;;;;29.55;14.63;;;1.80;99.90;;;;;;5009133;28;20093;-46
2021/12/03 07:21:30;;;;;;;26.92;14.32;;;1.80;99.90;;;;;;5016369;28;20124;-44
2021/12/03 07:23:57;;;;;;;29.10;14.73;;;1.80;99.90;;;;;;5010285;28;20054;-44
2021/12/03 07:26:24;;;;;;;31.83;13.43;;;1.80;99.90;;;;;;5010750;28;20046;-45
2021/12/03 07:28:51;;;;;;;25.85;13.15;;;1.80;99.90;;;;;;5011415;28;20448;-43
2021/12/03 07:31:20;;;;;;;27.25;12.65;;;1.90;99.90;;;;;;5008839;28;20054;-45
2021/12/03 07:33:48;;;;;;;34.67;13.90;;;1.90;99.90;;;;;;4990297;28;20050;-46
2021/12/03 07:36:15;;;;;;;27.48;13.48;;;2.00;99.90;;;;;;4984678;28;20078;-48
2021/12/03 07:38:42;;;;;;;29.83;13.73;;;2.00;99.90;;;;;;5005959;28;20045;-44
2021/12/03 07:41:09;;;;;;;26.65;13.23;;;2.00;99.90;;;;;;5014333;28;20112;-45
2021/12/03 07:43:36;;;;;;;28.75;13.38;;;1.90;99.90;;;;;;5023710;28;20061;-49
2021/12/03 07:46:03;;;;;;;25.00;13.63;;;2.00;99.90;;;;;;5030851;28;20441;-47
2021/12/03 07:48:31;;;;;;;23.35;11.95;;;2.00;99.90;;;;;;5030609;28;20176;-43
2021/12/03 07:50:58;;;;;;;27.50;13.57;;;2.00;99.90;;;;;;5030359;28;20144;-43
2021/12/03 07:53:25;;;;;;;31.33;14.02;;;2.00;99.90;;;;;;5012453;28;20444;-45
2021/12/03 07:55:52;;;;;;;25.52;12.93;;;2.00;99.90;;;;;;5017139;28;20044;-45
2021/12/03 07:58:20;;;;;;;21.75;12.60;;;2.10;99.90;;;;;;5013953;28;20140;-43
2021/12/03 08:00:47;;;;;;;29.88;13.85;;;2.10;99.90;;;;;;5021529;28;20050;-43
2021/12/03 08:03:14;;;;;;;30.10;13.18;;;2.10;99.90;;;;;;5029678;28;20048;-46
2021/12/03 08:05:42;;;;;;;26.35;14.30;;;2.10;99.90;;;;;;5014107;28;20527;-45
2021/12/03 08:08:09;;;;;;;28.23;13.27;;;2.10;99.90;;;;;;5029829;28;20326;-44
2021/12/03 08:10:36;;;;;;;28.25;14.27;;;2.10;99.90;;;;;;5011964;28;20394;-46
2021/12/03 08:13:03;;;;;;;29.73;15.30;;;2.20;99.90;;;;;;5015250;28;20132;-46
2021/12/03 08:15:31;;;;;;;31.33;14.20;;;2.20;99.90;;;;;;5014698;28;20080;-45
2021/12/03 08:17:58;;;;;;;31.58;15.05;;;2.20;99.90;;;;;;5012477;28;20550;-46
2021/12/03 08:20:25;;;;;;;35.63;17.15;;;2.20;99.90;;;;;;5029138;28;20489;-46
2021/12/03 08:22:53;;;;;;;31.15;15.85;;;2.20;99.90;;;;;;5012027;28;20081;-45
2021/12/03 08:25:20;;;;;;;37.88;18.30;;;2.20;99.90;;;;;;5038600;28;20055;-44
2021/12/03 08:27:47;;;;;;;38.42;19.17;;;2.20;99.90;;;;;;5014023;28;20045;-49
2021/12/03 08:30:17;;;;;;;33.63;18.55;;;2.20;99.90;;;;;;5034891;28;20136;-45
2021/12/03 08:32:44;;;;;;;31.08;16.90;;;2.20;99.90;;;;;;5017036;28;20061;-44
2021/12/03 08:35:11;;;;;;;46.80;21.35;;;2.20;99.90;;;;;;5011001;28;20049;-46
2021/12/03 08:37:44;;;;;;;46.97;22.30;;;2.20;99.90;;;;;;5012030;28;20073;-44
2021/12/03 08:40:13;;;;;;;47.20;24.15;;;2.20;99.90;;;;;;5029673;28;20142;-44
2021/12/03 08:42:40;;;;;;;52.40;25.38;;;2.20;99.90;;;;;;5046211;28;20478;-44
2021/12/03 08:45:07;;;;;;;52.90;26.63;;;2.20;99.90;;;;;;5049686;28;20045;-44
2021/12/03 08:47:35;;;;;;;43.47;25.42;;;2.20;99.90;;;;;;5037260;28;20493;-45
2021/12/03 08:50:05;;;;;;;37.90;22.33;;;2.20;99.90;;;;;;5018236;28;20477;-46
2021/12/03 08:52:50;;;;;;;48.67;27.20;;;2.20;99.90;;;;;;5015727;28;20060;-47
2021/12/03 08:55:18;;;;;;;49.70;27.58;;;2.30;99.90;;;;;;5017082;28;20083;-45
2021/12/03 08:57:45;;;;;;;57.60;28.90;;;2.30;99.90;;;;;;5024697;28;20405;-48
2021/12/03 09:00:13;;;;;;;46.78;25.70;;;2.30;99.90;;;;;;5011622;28;20124;-44
2021/12/03 09:02:40;;;;;;;58.33;28.52;;;2.30;99.90;;;;;;5010105;28;20053;-45
2021/12/03 09:05:07;;;;;;;53.00;28.05;;;2.30;99.90;;;;;;5010048;28;20045;-45
2021/12/03 09:07:34;;;;;;;54.72;28.40;;;2.30;99.90;;;;;;5012172;28;20048;-44
2021/12/03 09:10:01;;;;;;;55.65;28.33;;;2.40;99.90;;;;;;5032305;28;20511;-44
2021/12/03 09:12:30;;;;;;;52.95;28.13;;;2.40;99.90;;;;;;5027650;28;20052;-46
2021/12/03 09:14:59;;;;;;;53.67;28.17;;;2.40;99.90;;;;;;5030492;28;20456;-44
2021/12/03 09:17:42;;;;;;;52.63;26.73;;;2.40;99.90;;;;;;5028408;28;21475;-44
2021/12/03 09:20:20;;;;;;;53.00;27.58;;;2.40;99.90;;;;;;5039472;28;20076;-45
2021/12/03 09:22:50;;;;;;;50.35;27.42;;;2.40;99.90;;;;;;5028868;28;20401;-45
2021/12/03 09:25:20;;;;;;;48.15;25.60;;;2.50;99.90;;;;;;5026569;28;20052;-47
2021/12/03 09:27:48;;;;;;;61.83;29.40;;;2.50;99.90;;;;;;5022845;28;20416;-45
2021/12/03 09:30:16;;;;;;;49.85;25.90;;;2.50;99.90;;;;;;5035846;28;20053;-45
2021/12/03 09:32:49;;;;;;;55.95;27.48;;;2.60;99.90;;;;;;5019704;28;20044;-45
2021/12/03 09:35:16;;;;;;;51.70;26.98;;;2.60;99.90;;;;;;5037615;28;20053;-45
2021/12/03 09:37:43;;;;;;;53.33;27.30;;;2.60;99.90;;;;;;5041262;28;20077;-44
2021/12/03 09:40:19;;;;;;;54.28;26.02;;;2.70;99.90;;;;;;5033972;28;20555;-45
2021/12/03 09:42:48;;;;;;;59.58;26.70;;;2.70;99.90;;;;;;5010988;28;20058;-47
2021/12/03 09:45:15;;;;;;;51.28;25.05;;;2.70;99.90;;;;;;5018472;28;20481;-45
2021/12/03 09:47:42;;;;;;;53.47;24.90;;;2.70;99.90;;;;;;4996173;28;20124;-44
2021/12/03 09:50:12;;;;;;;37.30;20.95;;;2.80;99.90;;;;;;4999998;28;20111;-44
2021/12/03 09:52:45;;;;;;;44.22;22.80;;;2.80;99.90;;;;;;5022218;28;20054;-44
2021/12/03 09:55:13;;;;;;;45.50;17.90;;;2.80;99.90;;;;;;5007637;28;20038;-44
2021/12/03 09:57:44;;;;;;;52.05;22.45;;;2.90;99.90;;;;;;5003580;28;20061;-44
2021/12/03 10:00:22;;;;;;;42.83;20.67;;;2.90;99.90;;;;;;5013042;28;20060;-44
2021/12/03 10:13:49;;;;;;;46.28;19.90;;;3.10;99.90;;;;;;5024381;28;20056;-44
2021/12/03 10:16:33;;;;;;;41.47;17.70;;;3.10;99.90;;;;;;5019656;28;20049;-44
2021/12/03 10:19:18;;;;;;;43.67;18.02;;;3.20;99.90;;;;;;5003965;28;20049;-44
2021/12/03 10:24:44;;;;;;;47.38;16.23;;;3.30;99.90;;;;;;5005616;28;20049;-46
2021/12/03 10:30:35;;;;;;;47.13;13.85;;;3.30;99.90;;;;;;4983836;28;20171;-43
2021/12/03 10:33:35;;;;;;;33.38;13.82;;;3.30;99.90;;;;;;4998969;28;20524;-43
2021/12/03 10:36:22;;;;;;;32.25;11.40;;;3.30;99.90;;;;;;5002063;28;20042;-44
2021/12/03 10:38:56;;;;;;;32.90;12.57;;;3.30;99.90;;;;;;4995105;28;20046;-44
2021/12/03 10:41:36;;;;;;;30.02;12.32;;;3.40;99.90;;;;;;5012394;28;20144;-45
2021/12/03 10:44:12;;;;;;;38.17;11.98;;;3.40;99.90;;;;;;5006346;28;20485;-43
2021/12/03 10:46:51;;;;;;;36.83;14.63;;;3.40;99.90;;;;;;5010076;28;20120;-44
2021/12/03 10:49:31;;;;;;;33.70;11.18;;;3.40;99.90;;;;;;5014419;28;20045;-44
2021/12/03 10:52:09;;;;;;;33.92;12.07;;;3.40;99.90;;;;;;5005503;28;20104;-43
2021/12/03 10:54:58;;;;;;;33.72;10.07;;;3.40;99.90;;;;;;5021534;28;20087;-43
2021/12/03 11:06:40;;;;;;;30.77;10.68;;;3.60;99.90;;;;;;4945099;29;20047;-47
2021/12/03 11:39:48;;;;;;;23.95;7.60;;;3.50;99.90;;;;;;5012855;28;20057;-44
2021/12/03 13:23:40;;;;;;;17.70;6.13;;;3.50;99.90;;;;;;5073493;27;20144;-37
2021/12/03 13:32:43;;;;;;;20.38;6.80;;;3.50;99.90;;;;;;5052323;28;20123;-36
2021/12/03 14:09:06;;;;;;;14.40;5.68;;;3.70;99.90;;;;;;5060269;28;20045;-37
2021/12/03 14:46:11;;;;;;;14.15;6.40;;;4.00;99.90;;;;;;5040472;28;20049;-36
2021/12/03 14:48:46;;;;;;;13.27;6.50;;;4.00;99.90;;;;;;5035466;28;20045;-36
2021/12/03 14:51:30;;;;;;;17.30;6.68;;;4.00;99.90;;;;;;5043267;28;20111;-36
2021/12/03 14:54:23;;;;;;;16.27;6.95;;;4.00;99.90;;;;;;5039474;28;20098;-38
2021/12/03 14:57:14;;;;;;;12.50;6.75;;;4.00;99.90;;;;;;5045163;28;20085;-37
2021/12/03 14:59:55;;;;;;;18.38;6.57;;;4.10;99.90;;;;;;5047956;28;20053;-36
2021/12/03 15:02:34;;;;;;;17.13;6.85;;;4.10;99.90;;;;;;5048521;28;20052;-38
2021/12/03 15:05:15;;;;;;;14.75;6.55;;;4.10;99.90;;;;;;5046697;28;20143;-36
2021/12/03 15:07:44;;;;;;;20.02;6.60;;;4.10;99.90;;;;;;5038937;28;20489;-36
2021/12/03 15:10:18;;;;;;;13.30;6.75;;;4.20;99.90;;;;;;5044637;28;20075;-36
2021/12/03 15:13:08;;;;;;;12.35;6.22;;;4.20;99.90;;;;;;5045016;28;20420;-36
2021/12/03 15:18:47;;;;;;;17.40;6.75;;;4.20;99.90;;;;;;5034501;28;20132;-36
2021/12/03 15:27:02;;;;;;;12.25;7.05;;;4.30;99.90;;;;;;5076942;28;20128;-36
2021/12/03 15:29:50;;;;;;;11.40;6.45;;;4.30;99.90;;;;;;5044681;28;20085;-36
2021/12/03 15:32:29;;;;;;;14.02;6.72;;;4.30;99.90;;;;;;5041638;28;20072;-36
2021/12/03 15:35:03;;;;;;;15.18;6.72;;;4.30;99.90;;;;;;5038368;28;20052;-36
2021/12/03 15:37:54;;;;;;;13.65;7.07;;;4.30;99.90;;;;;;5046517;28;20501;-38
2021/12/03 15:40:39;;;;;;;14.98;6.63;;;4.30;99.90;;;;;;5049059;28;20071;-37
2021/12/03 15:54:33;;;;;;;12.98;7.82;;;4.30;99.90;;;;;;5043621;28;20057;-36
2021/12/03 15:57:25;;;;;;;14.98;7.78;;;4.30;99.90;;;;;;5045410;28;20524;-38
2021/12/03 16:05:44;;;;;;;12.68;6.85;;;4.30;99.90;;;;;;5004265;28;20122;-41
2021/12/03 16:08:15;;;;;;;16.35;7.93;;;4.40;99.90;;;;;;5047257;28;20056;-37
2021/12/03 16:10:52;;;;;;;16.73;8.52;;;4.40;99.90;;;;;;5050383;28;20048;-37
2021/12/03 16:13:28;;;;;;;16.52;8.73;;;4.50;99.90;;;;;;5078817;28;20137;-39
2021/12/03 16:21:40;;;;;;;18.02;9.32;;;4.40;99.90;;;;;;5041713;28;20049;-37
2021/12/03 16:24:35;;;;;;;15.70;9.32;;;4.40;99.90;;;;;;5073779;28;20053;-37
2021/12/03 16:43:49;;;;;;;15.48;9.85;;;4.50;99.90;;;;;;5039986;28;20045;-37
2021/12/03 16:46:28;;;;;;;12.35;9.75;;;4.60;99.90;;;;;;5036204;28;20052;-38
2021/12/03 16:51:46;;;;;;;21.50;12.23;;;4.50;99.90;;;;;;5041414;28;20041;-37
2021/12/03 16:54:15;;;;;;;14.98;11.02;;;4.50;99.90;;;;;;5036790;28;20532;-37
2021/12/03 16:56:45;;;;;;;16.05;11.65;;;4.50;99.90;;;;;;5048602;28;20041;-38
2021/12/03 16:59:14;;;;;;;16.85;12.05;;;4.50;99.90;;;;;;5046710;28;20132;-37
2021/12/03 17:01:45;;;;;;;15.73;12.25;;;4.60;99.90;;;;;;5041956;28;20057;-39
2021/12/03 17:04:26;;;;;;;19.15;12.95;;;4.50;99.90;;;;;;5043933;28;20444;-37
2021/12/03 17:15:44;;;;;;;21.55;15.55;;;4.50;99.90;;;;;;4994090;28;20046;-37
2021/12/03 17:48:40;;;;;;;28.55;19.52;;;4.50;99.90;;;;;;5038643;28;20382;-39
2021/12/03 17:51:25;;;;;;;25.88;19.75;;;4.50;99.90;;;;;;5038536;28;20084;-38
2021/12/03 17:56:41;;;;;;;32.22;21.30;;;4.50;99.90;;;;;;5037977;28;20122;-36
2021/12/03 17:59:15;;;;;;;28.55;20.48;;;4.50;99.90;;;;;;5039188;28;20077;-36
2021/12/03 18:01:47;;;;;;;28.70;21.20;;;4.50;99.90;;;;;;5046647;28;20132;-36
2021/12/03 18:04:24;;;;;;;30.85;21.50;;;4.50;99.90;;;;;;5045868;28;20057;-36
2021/12/03 18:07:06;;;;;;;30.33;21.50;;;4.50;99.90;;;;;;5045583;28;20107;-36
2021/12/03 18:15:47;;;;;;;32.60;22.23;;;4.50;99.90;;;;;;5043324;28;19968;-38
2021/12/03 18:18:39;;;;;;;29.50;21.75;;;4.50;99.90;;;;;;5051006;28;20076;-38
2021/12/03 18:43:32;;;;;;;40.53;27.67;;;4.60;99.90;;;;;;5048599;28;20135;-37
2021/12/03 18:51:49;;;;;;;38.55;24.90;;;4.60;99.90;;;;;;5034032;28;20491;-37